Time;durP1;ratioP1;P1;durP2;ratioP2;P2;SDS_P1;SDS_P2;PMS_P1;PMS_P2;Temp;Humidity;BMP_temperature;BMP_pressure;BME280_temperature;BME280_humidity;BME280_pressure;Samples;Min_cycle;Max_cycle;Signal;HPM_P1;HPM_P2
2021/03/15 00:01:20;;;;;;;4.57;2.20;;;;;;;3.51;70.65;99318.97;5071087;28;20207;-67
2021/03/15 00:03:48;;;;;;;5.43;1.80;;;;;;;3.46;70.82;99320.22;5056493;28;20196;-67
2021/03/15 00:06:16;;;;;;;2.73;1.60;;;;;;;3.47;70.60;99317.47;5070086;28;20204;-69
2021/03/15 00:08:43;;;;;;;3.10;1.70;;;;;;;3.49;70.49;99320.03;5061910;28;20186;-69
2021/03/15 00:11:10;;;;;;;1.77;1.40;;;;;;;3.39;70.57;99312.63;5059901;28;20208;-69
2021/03/15 00:13:38;;;;;;;2.63;2.00;;;;;;;3.45;70.85;99321.16;5049662;28;20244;-69
2021/03/15 00:16:05;;;;;;;6.27;1.63;;;;;;;3.42;70.98;99320.41;5058187;28;20196;-69
2021/03/15 00:18:32;;;;;;;2.60;1.70;;;;;;;3.41;70.62;99323.16;5068076;28;20200;-69
2021/03/15 00:21:00;;;;;;;7.40;1.97;;;;;;;3.41;70.67;99326.66;5049635;28;20255;-69
2021/03/15 00:23:28;;;;;;;3.90;1.67;;;;;;;3.40;70.84;99324.97;5063260;28;20201;-69
2021/03/15 00:25:55;;;;;;;3.20;1.43;;;;;;;3.14;70.85;99293.88;5049153;28;20193;-70
2021/03/15 00:28:22;;;;;;;2.17;1.53;;;;;;;3.32;70.42;99319.25;5049760;28;20244;-69
2021/03/15 00:30:49;;;;;;;3.47;1.97;;;;;;;3.31;70.48;99322.84;5054017;28;20193;-69
2021/03/15 00:33:17;;;;;;;2.67;1.27;;;;;;;3.31;70.79;99327.31;5059890;28;20208;-67
2021/03/15 00:35:44;;;;;;;2.97;1.30;;;;;;;3.30;70.85;99326.44;5057540;28;20619;-67
2021/03/15 00:38:11;;;;;;;2.00;1.63;;;;;;;3.26;70.32;99324.94;5050829;28;20202;-67
2021/03/15 00:40:39;;;;;;;5.90;1.93;;;;;;;3.24;70.41;99323.31;5069286;28;20222;-67
2021/03/15 00:43:06;;;;;;;3.57;1.83;;;;;;;3.15;70.52;99314.13;5052049;28;20247;-67
2021/03/15 00:45:34;;;;;;;2.83;1.67;;;;;;;3.20;70.86;99324.47;5048744;28;20295;-67
2021/03/15 00:48:01;;;;;;;3.13;1.90;;;;;;;3.17;70.54;99317.53;5064569;28;20200;-67
2021/03/15 00:50:31;;;;;;;4.67;1.80;;;;;;;3.06;70.80;99301.41;5051372;28;20201;-67
2021/03/15 00:53:01;;;;;;;3.27;1.77;;;;;;;3.24;70.57;99325.97;5050148;28;20254;-67
2021/03/15 00:55:28;;;;;;;2.70;1.50;;;;;;;3.23;70.46;99319.81;5049841;28;20672;-67
2021/03/15 00:57:56;;;;;;;5.70;1.83;;;;;;;3.27;70.48;99331.94;5058655;28;20208;-67
2021/03/15 01:00:30;;;;;;;2.50;1.30;;;;;;;3.22;70.81;99328.72;5042440;28;20708;-67
2021/03/15 01:03:09;;;;;;;1.70;1.30;;;;;;;3.15;71.13;99330.03;5049796;28;20209;-68
2021/03/15 01:05:41;;;;;;;4.57;1.73;;;;;;;3.12;71.05;99327.56;5066134;28;20209;-68
2021/03/15 01:08:23;;;;;;;2.20;1.43;;;;;;;3.13;70.86;99329.28;5049025;28;20257;-67
2021/03/15 01:10:51;;;;;;;4.63;1.53;;;;;;;3.08;70.80;99320.75;5062294;28;20869;-68
2021/03/15 01:13:19;;;;;;;2.60;1.80;;;;;;;3.15;70.71;99327.41;5061610;28;20212;-67
2021/03/15 01:15:47;;;;;;;2.00;1.40;;;;;;;3.15;71.19;99329.19;5035699;28;20205;-67
2021/03/15 01:18:16;;;;;;;2.80;1.63;;;;;;;3.15;70.71;99335.34;5053187;28;20651;-67
2021/03/15 01:20:43;;;;;;;2.57;1.27;;;;;;;3.15;71.26;99332.69;5071708;28;20295;-68
2021/03/15 01:23:11;;;;;;;4.33;1.90;;;;;;;3.14;70.86;99330.13;5073326;28;20209;-67
2021/03/15 01:25:40;;;;;;;5.50;1.73;;;;;;;3.11;70.56;99329.38;5058596;28;20189;-67
2021/03/15 01:28:09;;;;;;;2.20;1.43;;;;;;;3.07;71.18;99327.84;5072977;28;20734;-67
2021/03/15 01:30:38;;;;;;;3.67;1.50;;;;;;;3.03;70.99;99328.97;5072342;28;20686;-67
2021/03/15 01:33:06;;;;;;;3.20;1.27;;;;;;;3.05;71.28;99331.53;5073354;28;20196;-67
2021/03/15 01:35:34;;;;;;;2.23;1.40;;;;;;;3.03;71.21;99328.09;5058742;28;20786;-67
2021/03/15 01:38:05;;;;;;;2.57;1.27;;;;;;;3.07;70.84;99327.84;5061683;28;20200;-67
2021/03/15 01:40:34;;;;;;;1553.87;610.23;;;;;;;3.12;71.35;99332.88;5059947;28;20231;-67
2021/03/15 01:43:02;;;;;;;234.97;83.43;;;;;;;3.17;71.50;99337.91;5067887;28;20230;-67
2021/03/15 01:45:29;;;;;;;37.73;13.03;;;;;;;3.22;71.70;99333.16;5070042;28;20197;-67
2021/03/15 01:47:57;;;;;;;24.40;9.60;;;;;;;3.22;71.38;99327.88;5071903;28;20254;-68
2021/03/15 01:50:25;;;;;;;8.53;3.63;;;;;;;2.89;71.48;99291.84;5064854;28;20196;-67
2021/03/15 01:52:54;;;;;;;9.13;8.03;;;;;;;3.06;71.48;99325.28;5072568;28;20283;-67
2021/03/15 01:55:25;;;;;;;12.20;8.87;;;;;;;3.05;71.58;99323.56;5072939;28;20204;-67
2021/03/15 01:57:53;;;;;;;6.37;3.10;;;;;;;3.05;71.29;99323.56;5072553;28;20280;-67
2021/03/15 02:00:21;;;;;;;3.67;1.47;;;;;;;3.04;71.15;99321.84;5072791;28;20225;-67
2021/03/15 02:02:55;;;;;;;3.97;2.10;;;;;;;3.04;71.45;99322.72;5069152;28;20212;-68
2021/03/15 02:05:32;;;;;;;1.57;1.40;;;;;;;3.04;71.58;99325.38;5067355;28;20240;-67
2021/03/15 02:07:59;;;;;;;2.00;1.53;;;;;;;3.03;71.50;99318.34;5072032;28;20283;-67
2021/03/15 02:10:27;;;;;;;1.70;1.30;;;;;;;2.99;71.39;99324.78;5072096;28;20232;-67
2021/03/15 02:13:20;;;;;;;5.23;3.10;;;;;;;2.96;71.41;99329.44;5069670;28;20279;-67
2021/03/15 02:15:57;;;;;;;2.83;1.27;;;;;;;2.92;71.14;99325.25;5052011;28;20222;-66
2021/03/15 02:18:34;;;;;;;1.50;1.20;;;;;;;2.80;71.47;99317.09;5061641;28;20226;-67
2021/03/15 02:21:48;;;;;;;1.00;1.00;;;;;;;2.85;71.62;99329.22;5053456;28;20243;-67
2021/03/15 02:24:26;;;;;;;2.10;1.20;;;;;;;2.73;71.38;99315.72;5063935;28;20290;-67
2021/03/15 02:27:19;;;;;;;1.27;1.13;;;;;;;2.64;71.35;99308.31;5071948;28;20256;-67
2021/03/15 02:30:18;;;;;;;6.57;2.47;;;;;;;2.76;71.74;99334.13;5072466;28;20649;-67
2021/03/15 02:33:27;;;;;;;1.23;1.10;;;;;;;2.75;71.75;99328.88;5062377;28;20210;-66
2021/03/15 02:35:57;;;;;;;2.67;1.00;;;;;;;2.78;71.54;99334.03;5060957;28;20708;-66
2021/03/15 02:38:29;;;;;;;1.90;1.30;;;;;;;2.77;71.33;99332.34;5062529;28;20651;-66
2021/03/15 02:40:59;;;;;;;3.20;1.10;;;;;;;2.77;71.57;99334.97;5065924;28;20624;-67
2021/03/15 02:43:31;;;;;;;3.77;1.20;;;;;;;2.72;71.43;99332.56;5056138;28;20262;-66
2021/03/15 02:46:03;;;;;;;2.03;1.33;;;;;;;2.75;71.73;99340.34;5067682;28;20214;-65
2021/03/15 02:48:33;;;;;;;2.60;1.23;;;;;;;2.74;71.60;99343.09;5072126;28;20618;-68
2021/03/15 02:51:04;;;;;;;1.70;1.30;;;;;;;2.71;71.61;99344.13;5057572;28;20682;-68
2021/03/15 02:53:31;;;;;;;1.53;1.17;;;;;;;2.71;71.77;99341.47;5071930;28;20292;-68
2021/03/15 02:56:02;;;;;;;2.33;1.47;;;;;;;2.70;71.65;99336.25;5071337;28;20294;-68
2021/03/15 02:58:34;;;;;;;1.20;0.70;;;;;;;2.65;72.20;99344.47;5071728;28;20647;-66
2021/03/15 03:01:02;;;;;;;2.83;0.87;;;;;;;2.63;72.00;99343.72;5067369;28;20217;-67
2021/03/15 03:03:30;;;;;;;3.70;1.07;;;;;;;2.36;71.73;99303.78;5061448;28;20211;-67
2021/03/15 03:05:59;;;;;;;1.27;1.17;;;;;;;2.53;72.30;99331.94;5050905;28;20584;-66
2021/03/15 03:08:31;;;;;;;1.57;1.30;;;;;;;2.66;71.79;99340.03;5054278;28;20201;-67
2021/03/15 03:10:58;;;;;;;1.17;1.07;;;;;;;2.69;71.64;99346.00;5051607;28;20690;-66
2021/03/15 03:13:27;;;;;;;3.97;1.60;;;;;;;2.75;72.21;99348.28;5058316;28;20215;-66
2021/03/15 03:15:58;;;;;;;1.27;0.90;;;;;;;2.82;72.23;99346.16;5051620;28;20256;-66
2021/03/15 03:18:28;;;;;;;3.07;1.63;;;;;;;2.90;72.41;99349.22;5050421;28;20675;-67
2021/03/15 03:20:58;;;;;;;2.33;1.40;;;;;;;2.91;72.39;99352.72;5049894;28;20710;-67
2021/03/15 03:23:30;;;;;;;1.90;1.00;;;;;;;2.67;72.21;99312.59;5056213;28;20280;-67
2021/03/15 03:25:59;;;;;;;1.53;1.00;;;;;;;2.64;72.59;99318.94;5060486;28;20697;-67
2021/03/15 03:28:28;;;;;;;1.80;1.20;;;;;;;2.85;72.12;99355.72;5070277;28;20230;-67
2021/03/15 03:30:56;;;;;;;2.20;1.00;;;;;;;2.77;72.43;99354.38;5063223;28;20215;-67
2021/03/15 03:33:24;;;;;;;2.63;1.30;;;;;;;2.77;72.12;99346.44;5065209;28;20287;-67
2021/03/15 03:35:51;;;;;;;67.70;20.00;;;;;;;2.76;72.57;99357.13;5070852;28;20185;-67
2021/03/15 03:38:38;;;;;;;4.23;3.40;;;;;;;2.75;72.50;99360.69;5068396;28;20188;-67
2021/03/15 03:41:05;;;;;;;17.57;13.50;;;;;;;2.75;72.61;99366.84;5050498;28;20303;-67
2021/03/15 03:43:33;;;;;;;5.17;3.20;;;;;;;2.75;73.01;99369.50;5064773;28;20205;-67
2021/03/15 03:46:00;;;;;;;2.80;1.80;;;;;;;2.76;72.92;99368.59;5051972;28;20201;-67
2021/03/15 03:48:29;;;;;;;2.37;1.77;;;;;;;2.83;72.94;99362.91;5052223;28;20718;-68
2021/03/15 03:50:57;;;;;;;8.53;3.90;;;;;;;2.58;72.96;99326.38;5065240;28;20201;-67
2021/03/15 03:53:28;;;;;;;12.53;3.07;;;;;;;2.86;73.90;99368.88;5068557;28;20295;-66
2021/03/15 03:56:02;;;;;;;4.40;1.70;;;;;;;2.96;72.93;99367.41;5066319;28;20202;-66
2021/03/15 03:58:32;;;;;;;6.50;3.20;;;;;;;3.05;72.94;99372.16;5071233;28;20243;-69
2021/03/15 04:01:00;;;;;;;3.73;1.83;;;;;;;3.13;72.63;99370.88;5070529;28;20224;-70
2021/03/15 04:03:29;;;;;;;6.20;3.27;;;;;;;3.21;72.33;99373.91;5070744;28;20731;-68
2021/03/15 04:05:58;;;;;;;1.67;1.13;;;;;;;3.20;72.39;99373.06;5062028;28;20287;-67
2021/03/15 04:08:29;;;;;;;3.17;1.30;;;;;;;3.18;72.15;99377.59;5070732;28;20213;-67
2021/03/15 04:10:58;;;;;;;4.37;2.83;;;;;;;3.13;72.35;99374.38;5055699;28;20204;-67
2021/03/15 04:13:29;;;;;;;33.23;18.40;;;;;;;3.12;72.80;99380.63;5049977;28;20206;-67
2021/03/15 04:15:56;;;;;;;2.37;1.83;;;;;;;3.12;72.94;99377.97;5051422;28;20225;-66
2021/03/15 04:18:27;;;;;;;1.70;1.40;;;;;;;3.16;72.89;99381.28;5055600;28;20216;-67
2021/03/15 04:20:58;;;;;;;1.30;1.13;;;;;;;3.14;72.75;99384.03;5058317;28;20225;-67
2021/03/15 04:23:30;;;;;;;1.13;0.90;;;;;;;3.09;73.03;99380.81;5064570;28;20215;-67
2021/03/15 04:25:59;;;;;;;2.37;1.20;;;;;;;3.04;72.51;99372.25;5065890;28;20196;-66
2021/03/15 04:28:28;;;;;;;0.90;0.90;;;;;;;3.07;72.58;99385.34;5053178;28;20324;-67
2021/03/15 04:30:56;;;;;;;0.83;0.83;;;;;;;3.07;72.82;99383.56;5046049;28;20259;-67
2021/03/15 04:33:24;;;;;;;1.07;0.97;;;;;;;3.06;73.14;99375.66;5062701;28;21006;-67
2021/03/15 04:35:52;;;;;;;0.90;0.90;;;;;;;3.04;72.91;99382.84;5068707;28;20216;-67
2021/03/15 04:38:24;;;;;;;1.23;1.13;;;;;;;3.05;72.91;99382.75;5053076;28;20728;-67
2021/03/15 04:40:52;;;;;;;0.73;0.73;;;;;;;3.03;73.25;99387.28;5062965;28;20243;-67
2021/03/15 04:43:22;;;;;;;1.70;1.27;;;;;;;3.01;73.51;99391.84;5070326;28;20204;-67
2021/03/15 04:45:50;;;;;;;1.53;0.90;;;;;;;3.03;73.23;99389.94;5059432;28;20251;-67
2021/03/15 04:48:21;;;;;;;1.07;0.90;;;;;;;2.95;72.92;99378.09;5069477;28;20207;-67
2021/03/15 04:50:52;;;;;;;1.53;1.23;;;;;;;3.08;73.20;99390.56;5070673;28;20259;-67
2021/03/15 04:53:20;;;;;;;0.80;0.80;;;;;;;3.11;72.87;99394.81;5056234;28;20251;-67
2021/03/15 04:55:48;;;;;;;1.00;0.90;;;;;;;3.12;73.00;99396.53;5069391;28;20260;-67
2021/03/15 04:58:17;;;;;;;3.73;1.10;;;;;;;3.11;73.21;99385.06;5062814;28;20200;-68
2021/03/15 05:00:48;;;;;;;1.80;0.97;;;;;;;3.10;73.17;99387.81;5066207;28;20244;-67
2021/03/15 05:03:18;;;;;;;1999.90;948.07;;;;;;;3.07;73.78;99393.31;5060484;28;20272;-66
2021/03/15 05:05:47;;;;;;;77.23;39.90;;;;;;;3.11;73.47;99397.47;5062746;28;20196;-67
2021/03/15 05:08:18;;;;;;;7.83;5.20;;;;;;;3.09;73.60;99388.75;5066998;28;20224;-67
2021/03/15 05:10:46;;;;;;;22.30;12.87;;;;;;;3.14;74.38;99402.59;5060958;28;20361;-67
2021/03/15 05:13:14;;;;;;;18.03;4.80;;;;;;;3.15;75.20;99399.00;5064436;28;20644;-67
2021/03/15 05:15:43;;;;;;;2.47;2.27;;;;;;;3.20;74.63;99404.88;5066945;28;20240;-67
2021/03/15 05:18:13;;;;;;;4.20;3.03;;;;;;;3.27;73.90;99408.88;5043937;28;20198;-68
2021/03/15 05:20:43;;;;;;;3.27;1.73;;;;;;;3.35;73.80;99411.91;5054975;28;20236;-68
2021/03/15 05:23:11;;;;;;;3.77;2.90;;;;;;;3.33;73.86;99403.19;5053397;28;20315;-67
2021/03/15 05:25:40;;;;;;;2.23;1.53;;;;;;;3.42;73.38;99415.94;5052735;28;20738;-68
2021/03/15 05:28:09;;;;;;;0.93;0.93;;;;;;;3.42;73.61;99413.28;5051206;28;20249;-68
2021/03/15 05:30:36;;;;;;;1.47;0.87;;;;;;;3.42;73.54;99415.94;5052567;28;20230;-67
2021/03/15 05:33:10;;;;;;;0.90;0.90;;;;;;;3.40;73.24;99422.28;5050601;28;20263;-67
2021/03/15 05:35:39;;;;;;;2.30;1.27;;;;;;;3.30;73.98;99416.63;5046745;28;20200;-68
2021/03/15 05:38:06;;;;;;;1.37;0.90;;;;;;;3.30;73.70;99424.59;5050583;28;20669;-67
2021/03/15 05:40:37;;;;;;;1.33;1.00;;;;;;;3.30;73.55;99435.22;5049152;28;20274;-68
2021/03/15 05:43:34;;;;;;;1.13;1.00;;;;;;;3.19;73.78;99419.09;5052466;28;20212;-69
2021/03/15 05:46:43;;;;;;;2.50;1.17;;;;;;;3.27;74.20;99437.19;4991326;28;20210;-68
2021/03/15 05:50:01;;;;;;;1.10;1.00;;;;;;;3.23;74.20;99433.88;5047784;28;20205;-69
2021/03/15 05:52:44;;;;;;;1.27;1.13;;;;;;;3.26;73.71;99441.66;5052587;28;20322;-67
2021/03/15 05:55:35;;;;;;;1.60;1.20;;;;;;;3.25;74.48;99453.19;5053337;28;20216;-68
2021/03/15 05:59:03;;;;;;;4.63;1.50;;;;;;;3.23;74.82;99441.81;5051629;28;20200;-67
2021/03/15 06:01:56;;;;;;;1.17;1.00;;;;;;;3.24;74.57;99448.84;5035835;28;20234;-68
2021/03/15 06:04:50;;;;;;;1.10;1.10;;;;;;;3.22;74.74;99448.06;5055640;28;20262;-67
2021/03/15 06:07:21;;;;;;;0.83;0.83;;;;;;;3.19;75.24;99456.22;5067705;28;20235;-68
2021/03/15 06:10:06;;;;;;;1.30;0.70;;;;;;;3.21;75.11;99451.69;5064759;28;20225;-68
2021/03/15 06:12:39;;;;;;;1.33;1.17;;;;;;;3.21;74.60;99462.28;5069672;28;20310;-68
2021/03/15 06:15:07;;;;;;;4.10;1.37;;;;;;;3.23;74.93;99464.84;5053924;28;20201;-68
2021/03/15 06:17:35;;;;;;;1.57;1.10;;;;;;;3.26;74.75;99468.16;5066170;28;20197;-68
2021/03/15 06:20:05;;;;;;;1.40;0.93;;;;;;;3.29;74.39;99470.66;5054389;28;20635;-67
2021/03/15 06:22:34;;;;;;;2.23;1.37;;;;;;;3.33;74.59;99477.47;5059774;28;20287;-68
2021/03/15 06:25:03;;;;;;;2.07;1.27;;;;;;;3.32;74.75;99475.75;5053802;28;20202;-67
2021/03/15 06:27:30;;;;;;;1.27;1.00;;;;;;;3.31;75.27;99471.41;5056388;28;20270;-67
2021/03/15 06:29:58;;;;;;;1.30;1.20;;;;;;;3.31;74.97;99471.41;5061619;28;20201;-67
2021/03/15 06:32:27;;;;;;;2.73;1.30;;;;;;;3.33;74.88;99480.13;5052125;28;20672;-67
2021/03/15 06:34:56;;;;;;;1.40;1.20;;;;;;;3.24;74.56;99462.09;5057688;28;20559;-67
2021/03/15 06:37:24;;;;;;;4.03;1.20;;;;;;;3.15;74.86;99437.94;5053012;28;20668;-70
2021/03/15 06:39:51;;;;;;;4.97;1.40;;;;;;;3.44;74.60;99482.16;5052985;28;20235;-67
2021/03/15 06:42:20;;;;;;;1.03;0.97;;;;;;;3.46;74.69;99484.72;5042360;28;20577;-68
2021/03/15 06:44:48;;;;;;;1.10;1.00;;;;;;;3.38;75.02;99477.22;5055699;28;20206;-67
2021/03/15 06:47:15;;;;;;;2.43;1.23;;;;;;;3.46;75.35;99493.53;5068354;28;20229;-67
2021/03/15 06:49:43;;;;;;;2.17;1.30;;;;;;;3.48;75.06;99489.00;5063714;28;20660;-67
2021/03/15 06:52:10;;;;;;;58.23;24.77;;;;;;;3.40;75.84;99478.84;5067465;28;20209;-67
2021/03/15 06:54:38;;;;;;;4.00;1.57;;;;;;;3.53;75.79;99492.22;5063867;28;20714;-68
2021/03/15 06:57:21;;;;;;;1.60;1.50;;;;;;;3.60;76.43;99503.34;5061188;28;20215;-67
2021/03/15 06:59:50;;;;;;;2.97;2.77;;;;;;;3.53;77.52;99500.19;5061458;28;20271;-67
2021/03/15 07:02:27;;;;;;;2.70;1.97;;;;;;;3.57;77.17;99511.47;5065952;28;20288;-67
2021/03/15 07:04:56;;;;;;;2.87;1.63;;;;;;;3.47;78.05;99512.97;5070828;28;20221;-67
2021/03/15 07:07:28;;;;;;;1.40;1.10;;;;;;;3.47;78.75;99515.63;5056789;28;20690;-67
2021/03/15 07:09:56;;;;;;;1.90;0.93;;;;;;;3.42;79.06;99527.38;5064607;28;20196;-67
2021/03/15 07:12:26;;;;;;;2.00;1.03;;;;;;;3.48;78.42;99523.50;5070100;28;20210;-67
2021/03/15 07:15:04;;;;;;;1.07;0.93;;;;;;;3.50;78.36;99526.91;5060689;28;20291;-67
2021/03/15 07:17:32;;;;;;;4.43;1.97;;;;;;;3.58;78.31;99523.81;5056800;28;20490;-67
2021/03/15 07:19:59;;;;;;;2.67;1.33;;;;;;;3.59;78.18;99533.47;5068935;28;20212;-67
2021/03/15 07:22:29;;;;;;;2.00;1.17;;;;;;;3.63;78.25;99527.88;5068330;28;20283;-67
2021/03/15 07:25:05;;;;;;;1.20;1.10;;;;;;;3.69;78.22;99532.88;5052839;28;20201;-68
2021/03/15 07:27:35;;;;;;;1.97;1.20;;;;;;;3.67;78.21;99526.78;5066795;28;20301;-68
2021/03/15 07:30:35;;;;;;;3.23;1.87;;;;;;;3.79;78.19;99540.28;5066615;28;20686;-67
2021/03/15 07:33:05;;;;;;;1.03;0.90;;;;;;;3.87;77.83;99543.31;5064838;28;20203;-67
2021/03/15 07:35:34;;;;;;;0.97;0.90;;;;;;;3.92;77.46;99546.53;5063876;28;20200;-68
2021/03/15 07:38:03;;;;;;;1.77;0.80;;;;;;;4.01;77.10;99557.50;5064220;28;20288;-68
2021/03/15 07:40:33;;;;;;;1.87;1.17;;;;;;;3.91;76.67;99527.09;5069843;28;20217;-67
2021/03/15 07:43:04;;;;;;;1.20;1.10;;;;;;;4.08;77.13;99560.63;5062978;28;20217;-67
2021/03/15 07:45:32;;;;;;;1.90;1.00;;;;;;;3.86;76.79;99521.22;5070055;28;20284;-67
2021/03/15 07:48:17;;;;;;;1.57;1.03;;;;;;;3.93;76.76;99521.69;5065554;28;20316;-67
2021/03/15 07:50:56;;;;;;;4.67;1.10;;;;;;;4.22;76.71;99568.59;5054795;28;20206;-68
2021/03/15 07:53:37;;;;;;;0.70;0.70;;;;;;;4.26;77.33;99577.25;5068513;28;20208;-67
2021/03/15 07:56:06;;;;;;;1.10;1.00;;;;;;;4.28;77.06;99591.28;5050247;28;20198;-67
2021/03/15 07:58:35;;;;;;;1.30;1.10;;;;;;;4.28;77.30;99586.81;5051239;28;20237;-67
2021/03/15 08:01:05;;;;;;;1.23;0.90;;;;;;;4.29;77.35;99587.72;5063508;28;20218;-67
2021/03/15 08:03:35;;;;;;;0.93;0.90;;;;;;;4.31;77.70;99593.78;5060398;28;20308;-67
2021/03/15 08:06:03;;;;;;;1.50;1.00;;;;;;;4.34;77.55;99597.09;5055258;28;20259;-67
2021/03/15 08:08:31;;;;;;;1.53;0.97;;;;;;;4.34;77.77;99601.56;5055940;28;20194;-67
2021/03/15 08:10:59;;;;;;;1.80;1.10;;;;;;;4.29;78.90;99603.66;5055670;28;20245;-67
2021/03/15 08:13:29;;;;;;;1.03;0.90;;;;;;;4.20;78.89;99609.50;5055290;28;20663;-67
2021/03/15 08:16:00;;;;;;;1.53;1.03;;;;;;;4.25;79.20;99610.06;5051607;28;20206;-67
2021/03/15 08:18:29;;;;;;;0.80;0.80;;;;;;;4.14;79.78;99607.22;5054951;28;20209;-67
2021/03/15 08:21:01;;;;;;;0.80;0.80;;;;;;;4.18;79.84;99616.72;5058669;28;20298;-67
2021/03/15 08:23:30;;;;;;;2.87;1.20;;;;;;;4.18;80.00;99622.88;5055278;28;20194;-67
2021/03/15 08:26:04;;;;;;;1.90;0.90;;;;;;;4.08;81.07;99616.41;5056951;28;20205;-67
2021/03/15 08:28:33;;;;;;;935.37;395.60;;;;;;;4.11;80.57;99632.16;5054802;28;20841;-67
2021/03/15 08:31:13;;;;;;;8.43;4.97;;;;;;;4.20;80.16;99626.28;5061806;28;20524;-67
2021/03/15 08:33:41;;;;;;;1.40;1.10;;;;;;;4.27;81.38;99634.75;5053977;28;20214;-67
2021/03/15 08:36:09;;;;;;;2.67;1.30;;;;;;;4.36;81.13;99636.88;5057659;28;20200;-67
2021/03/15 08:38:36;;;;;;;3.17;2.53;;;;;;;4.46;80.54;99639.81;5054882;28;20194;-67
2021/03/15 08:41:05;;;;;;;1.17;1.13;;;;;;;4.53;79.74;99635.84;5063045;28;20588;-67
2021/03/15 08:43:40;;;;;;;2.10;1.90;;;;;;;4.55;80.43;99642.78;5055545;28;20195;-67
2021/03/15 08:46:11;;;;;;;1.27;1.17;;;;;;;4.59;80.14;99641.66;5056560;28;20198;-67
2021/03/15 08:49:09;;;;;;;1.10;0.70;;;;;;;4.64;80.15;99631.59;5067043;28;20220;-67
2021/03/15 08:51:47;;;;;;;0.87;0.83;;;;;;;4.53;79.81;99611.91;4996015;28;20255;-67
2021/03/15 08:54:17;;;;;;;1.30;1.20;;;;;;;4.59;78.69;99615.06;5053437;28;20311;-67
2021/03/15 08:56:47;;;;;;;0.90;0.87;;;;;;;4.81;79.29;99648.28;5057296;28;20752;-67
2021/03/15 08:59:15;;;;;;;3.33;2.93;;;;;;;4.89;78.80;99656.66;5057748;28;20285;-67
2021/03/15 09:01:52;;;;;;;2.23;1.70;;;;;;;4.98;78.69;99645.47;5062701;28;20212;-69
2021/03/15 09:04:39;;;;;;;0.60;0.60;;;;;;;5.08;78.52;99662.53;5059122;28;20205;-67
2021/03/15 09:07:30;;;;;;;1.10;1.00;;;;;;;4.86;79.26;99660.34;5055060;28;20198;-67
2021/03/15 09:10:19;;;;;;;5.13;1.00;;;;;;;4.84;79.27;99658.75;5055250;28;20271;-66
2021/03/15 09:13:27;;;;;;;1.70;1.60;;;;;;;4.72;79.99;99659.50;5055328;28;20221;-67
2021/03/15 09:16:00;;;;;;;0.70;0.70;;;;;;;4.46;80.03;99647.78;5061755;28;20564;-67
2021/03/15 09:18:51;;;;;;;0.33;0.33;;;;;;;4.07;80.86;99677.59;5060175;28;20202;-68
2021/03/15 09:21:58;;;;;;;0.57;0.57;;;;;;;3.96;81.63;99676.41;5056561;28;20218;-67
2021/03/15 09:24:49;;;;;;;5.40;0.50;;;;;;;4.18;81.39;99680.47;5061957;28;20740;-68
2021/03/15 09:27:38;;;;;;;0.80;0.80;;;;;;;4.00;81.92;99693.91;5059984;28;20609;-67
2021/03/15 09:30:14;;;;;;;1.47;0.80;;;;;;;4.13;82.10;99690.50;5056645;28;20633;-67
2021/03/15 09:32:46;;;;;;;0.73;0.73;;;;;;;4.12;82.49;99688.81;5057119;28;20277;-67
2021/03/15 09:35:21;;;;;;;0.90;0.67;;;;;;;4.15;82.33;99691.28;5066488;28;20223;-67
2021/03/15 09:37:51;;;;;;;1.10;0.53;;;;;;;4.15;82.57;99691.28;5061094;28;20201;-67
2021/03/15 09:40:20;;;;;;;1.70;0.50;;;;;;;4.03;82.22;99707.00;5061414;28;20205;-67
2021/03/15 09:42:47;;;;;;;0.30;0.30;;;;;;;3.91;82.63;99689.09;5062513;28;20611;-67
2021/03/15 09:45:27;;;;;;;0.50;0.37;;;;;;;4.04;82.95;99700.75;5067668;28;20225;-68
2021/03/15 09:47:55;;;;;;;0.47;0.40;;;;;;;4.22;82.98;99700.59;5062694;28;20233;-67
2021/03/15 09:50:25;;;;;;;0.40;0.40;;;;;;;4.29;82.46;99701.97;5041251;28;20231;-67
2021/03/15 09:53:08;;;;;;;0.43;0.43;;;;;;;4.38;82.57;99698.75;5047612;28;20198;-67
2021/03/15 09:55:36;;;;;;;0.50;0.50;;;;;;;4.59;81.79;99710.78;5037161;28;20194;-67
2021/03/15 09:58:07;;;;;;;3.00;0.57;;;;;;;4.71;82.07;99713.63;5062741;28;20228;-67
2021/03/15 10:00:45;;;;;;;0.40;0.40;;;;;;;4.67;82.13;99716.50;5038339;28;20236;-68
2021/03/15 10:03:27;;;;;;;0.30;0.30;;;;;;;4.65;81.69;99725.50;5039182;28;20573;-67
2021/03/15 10:06:20;;;;;;;0.57;0.40;;;;;;;4.67;81.89;99726.28;5053891;28;20205;-67
2021/03/15 10:09:06;;;;;;;0.40;0.40;;;;;;;4.74;81.97;99729.41;5063644;28;20753;-67
2021/03/15 10:12:02;;;;;;;0.40;0.40;;;;;;;4.89;82.39;99723.16;5064828;28;20216;-67
2021/03/15 10:15:01;;;;;;;1.17;0.50;;;;;;;5.02;81.60;99729.44;5046947;28;20196;-67
2021/03/15 10:17:36;;;;;;;0.70;0.70;;;;;;;5.06;81.54;99727.44;5052042;28;20224;-68
2021/03/15 10:20:23;;;;;;;0.20;0.20;;;;;;;4.93;81.46;99732.69;5050617;28;20209;-68
2021/03/15 10:22:53;;;;;;;2.27;0.50;;;;;;;4.90;81.75;99733.72;5064640;28;20213;-67
2021/03/15 10:25:22;;;;;;;0.30;0.30;;;;;;;4.86;81.11;99732.16;5063981;28;20214;-67
2021/03/15 10:27:55;;;;;;;325.93;148.30;;;;;;;4.92;81.12;99741.59;5062277;28;20229;-68
2021/03/15 10:30:28;;;;;;;1.90;1.00;;;;;;;4.98;81.13;99749.22;5060067;28;20287;-68
2021/03/15 10:32:57;;;;;;;0.40;0.40;;;;;;;5.16;81.35;99741.88;5040461;28;20212;-68
2021/03/15 10:35:25;;;;;;;4.40;2.57;;;;;;;5.30;81.72;99742.75;5037270;28;21015;-68
2021/03/15 10:38:03;;;;;;;1.23;0.93;;;;;;;5.45;81.62;99753.38;5038464;28;20207;-68
2021/03/15 10:40:50;;;;;;;0.83;0.53;;;;;;;5.41;79.91;99757.19;5053290;28;20225;-67
2021/03/15 10:43:23;;;;;;;3.43;1.17;;;;;;;5.30;80.65;99758.72;5040536;28;20218;-67
2021/03/15 10:45:54;;;;;;;0.43;0.43;;;;;;;5.46;80.54;99760.41;5056401;28;20205;-67
2021/03/15 10:48:26;;;;;;;0.60;0.60;;;;;;;5.40;80.61;99742.19;5039325;28;20214;-69
2021/03/15 10:50:59;;;;;;;1.07;0.97;;;;;;;5.57;79.93;99769.47;5037903;28;20205;-68
2021/03/15 10:53:51;;;;;;;0.50;0.47;;;;;;;5.43;78.81;99760.63;5056265;28;20231;-67
2021/03/15 10:56:38;;;;;;;0.83;0.83;;;;;;;5.56;78.19;99769.56;5039996;28;20328;-67
2021/03/15 10:59:33;;;;;;;1.20;0.80;;;;;;;5.45;77.95;99770.22;5033897;28;20757;-67
2021/03/15 11:02:06;;;;;;;0.50;0.50;;;;;;;5.51;77.83;99772.53;5043299;28;20253;-67
2021/03/15 11:04:42;;;;;;;3.40;0.83;;;;;;;5.48;78.91;99771.81;5036514;28;20225;-67
2021/03/15 11:07:21;;;;;;;0.50;0.50;;;;;;;5.42;78.13;99775.72;5038528;28;20677;-67
2021/03/15 11:09:58;;;;;;;0.40;0.40;;;;;;;5.46;78.73;99773.72;5040552;28;20203;-67
2021/03/15 11:12:38;;;;;;;1.20;1.20;;;;;;;5.63;78.63;99773.53;5040920;28;20260;-67
2021/03/15 11:15:16;;;;;;;0.40;0.40;;;;;;;5.57;78.17;99772.13;5052916;28;20200;-67
2021/03/15 11:18:14;;;;;;;3.10;0.60;;;;;;;5.63;78.88;99784.19;5037960;28;20216;-67
2021/03/15 11:20:48;;;;;;;0.40;0.40;;;;;;;5.36;78.58;99743.31;5040517;28;20207;-66
2021/03/15 11:23:31;;;;;;;0.30;0.30;;;;;;;5.65;78.67;99795.59;5044130;28;20484;-67
2021/03/15 11:26:05;;;;;;;0.30;0.30;;;;;;;5.48;77.82;99793.13;5038146;28;20214;-66
2021/03/15 11:28:35;;;;;;;0.57;0.40;;;;;;;5.54;78.05;99795.44;5039429;28;20713;-66
2021/03/15 11:31:12;;;;;;;1.80;0.40;;;;;;;5.50;78.51;99797.41;5039406;28;20442;-67
2021/03/15 11:33:39;;;;;;;0.20;0.20;;;;;;;5.51;79.47;99798.25;5032030;28;20296;-67
2021/03/15 11:36:15;;;;;;;0.43;0.43;;;;;;;5.64;79.46;99798.38;5052093;28;20280;-67
2021/03/15 11:38:50;;;;;;;0.50;0.50;;;;;;;5.62;79.26;99798.47;5055496;28;20656;-67
2021/03/15 11:41:23;;;;;;;1.23;0.70;;;;;;;5.62;80.03;99801.13;5035522;28;20237;-68
2021/03/15 11:43:52;;;;;;;0.50;0.50;;;;;;;5.58;79.54;99796.94;5055026;28;20394;-67
2021/03/15 11:46:20;;;;;;;3.30;0.90;;;;;;;5.65;79.38;99806.25;5037079;28;20255;-67
2021/03/15 11:48:51;;;;;;;0.50;0.50;;;;;;;5.51;79.78;99819.56;5039800;28;20216;-67
2021/03/15 11:51:36;;;;;;;0.53;0.53;;;;;;;5.37;79.51;99814.25;5040267;28;20202;-67
2021/03/15 11:54:21;;;;;;;0.30;0.30;;;;;;;5.31;79.36;99815.47;5054389;28;20213;-67
2021/03/15 11:56:50;;;;;;;0.60;0.60;;;;;;;5.15;79.58;99823.53;5040772;28;20253;-67
2021/03/15 11:59:19;;;;;;;0.80;0.80;;;;;;;5.08;79.84;99829.31;5050519;28;20279;-67
2021/03/15 12:01:54;;;;;;;0.50;0.50;;;;;;;5.33;80.20;99839.34;5052953;28;20444;-67
2021/03/15 12:04:21;;;;;;;1.20;0.70;;;;;;;5.35;80.72;99830.31;5032957;28;20220;-67
2021/03/15 12:06:53;;;;;;;2.23;0.83;;;;;;;5.16;79.99;99829.69;5038247;28;20209;-67
2021/03/15 12:09:27;;;;;;;0.70;0.70;;;;;;;5.08;80.33;99832.84;5040363;28;20196;-67
2021/03/15 12:11:56;;;;;;;0.80;0.80;;;;;;;5.20;81.53;99836.53;5040396;28;20686;-67